Time;durP1;ratioP1;P1;durP2;ratioP2;P2;SDS_P1;SDS_P2;PMS_P1;PMS_P2;Temp;Humidity;BMP_temperature;BMP_pressure;BME280_temperature;BME280_humidity;BME280_pressure;Samples;Min_cycle;Max_cycle;Signal;HPM_P1;HPM_P2
2022/09/20 00:00:50;;;;;;;0.50;0.40;;;17.40;54.90;;;;;;5055056;28;20036;-68
2022/09/20 00:03:17;;;;;;;3.00;0.50;;;17.40;55.10;;;;;;5054867;28;20033;-68
2022/09/20 00:05:44;;;;;;;1.58;0.35;;;17.40;55.10;;;;;;5055235;28;20418;-68
2022/09/20 00:08:13;;;;;;;1.35;0.65;;;17.40;55.40;;;;;;5054687;28;20595;-67
2022/09/20 00:10:39;;;;;;;1.42;0.57;;;17.30;55.50;;;;;;5054770;28;20108;-68
2022/09/20 00:13:07;;;;;;;0.95;0.50;;;17.30;55.90;;;;;;5054961;28;20065;-68
2022/09/20 00:15:33;;;;;;;1.10;0.60;;;17.30;55.40;;;;;;5055015;28;20032;-72
2022/09/20 00:17:59;;;;;;;1.48;0.40;;;17.30;55.70;;;;;;5055240;28;20453;-68
2022/09/20 00:20:24;;;;;;;1.40;0.50;;;17.20;55.90;;;;;;5054688;28;20047;-68
2022/09/20 00:22:51;;;;;;;2.20;0.60;;;17.20;56.40;;;;;;5054650;28;20025;-68
2022/09/20 00:25:18;;;;;;;1.10;0.55;;;17.20;56.40;;;;;;5054817;28;20025;-68
2022/09/20 00:27:44;;;;;;;0.63;0.40;;;17.10;56.80;;;;;;5054603;28;20402;-68
2022/09/20 00:30:13;;;;;;;1.13;0.55;;;17.10;56.80;;;;;;5054825;28;20032;-68
2022/09/20 00:32:40;;;;;;;1.02;0.50;;;17.10;56.00;;;;;;5053828;28;20036;-68
2022/09/20 00:35:06;;;;;;;0.73;0.60;;;17.00;55.70;;;;;;5054508;28;20025;-68
2022/09/20 00:37:37;;;;;;;2.72;0.65;;;17.00;56.00;;;;;;5054444;28;20032;-68
2022/09/20 00:40:06;;;;;;;4.35;0.80;;;17.00;55.80;;;;;;5054394;28;20029;-68
2022/09/20 00:42:33;;;;;;;1.85;0.50;;;17.00;55.70;;;;;;5054335;28;20059;-68
2022/09/20 00:45:19;;;;;;;3.63;0.63;;;17.00;54.90;;;;;;5054345;28;20080;-68
2022/09/20 00:47:51;;;;;;;0.57;0.43;;;17.00;55.20;;;;;;5053761;28;20124;-68
2022/09/20 00:50:46;;;;;;;0.93;0.30;;;17.00;54.30;;;;;;5054268;28;20068;-68
2022/09/20 00:53:26;;;;;;;0.50;0.30;;;16.90;54.00;;;;;;5054482;28;20047;-68
2022/09/20 00:56:00;;;;;;;3.65;0.50;;;16.90;53.80;;;;;;5054220;28;20079;-68
2022/09/20 00:58:29;;;;;;;1.30;0.50;;;16.90;53.50;;;;;;5052245;28;20029;-68
2022/09/20 01:00:56;;;;;;;0.55;0.45;;;16.90;53.60;;;;;;5051173;28;20456;-68
2022/09/20 01:03:26;;;;;;;1.50;0.68;;;16.90;54.20;;;;;;5051353;28;20459;-68
2022/09/20 01:05:53;;;;;;;1.95;0.60;;;16.90;53.70;;;;;;5053414;28;20103;-68
2022/09/20 01:08:19;;;;;;;0.90;0.40;;;16.90;54.00;;;;;;5053875;28;20411;-68
2022/09/20 01:10:45;;;;;;;0.65;0.40;;;16.90;54.80;;;;;;5053711;28;20108;-68
2022/09/20 01:13:11;;;;;;;1.15;0.50;;;16.90;54.70;;;;;;5053115;28;20021;-68
2022/09/20 01:15:38;;;;;;;1.90;0.50;;;16.80;54.40;;;;;;5053731;28;20031;-68
2022/09/20 01:18:05;;;;;;;2.72;0.47;;;16.80;54.10;;;;;;5053717;28;20112;-68
2022/09/20 01:20:38;;;;;;;1.40;0.40;;;16.80;53.60;;;;;;5052985;28;20100;-68
2022/09/20 01:23:18;;;;;;;1.38;0.60;;;16.80;54.00;;;;;;5053634;28;20430;-68
2022/09/20 01:26:08;;;;;;;0.93;0.38;;;16.80;54.50;;;;;;5053290;28;20082;-68
2022/09/20 01:28:34;;;;;;;3.75;0.50;;;16.70;54.40;;;;;;5053386;28;20040;-68
2022/09/20 01:31:08;;;;;;;1.02;0.40;;;16.70;54.40;;;;;;5053591;28;20029;-68
2022/09/20 01:33:56;;;;;;;1.38;0.55;;;16.70;54.20;;;;;;5053454;28;20041;-68
2022/09/20 01:36:48;;;;;;;1.45;0.45;;;16.70;54.30;;;;;;5052935;28;20438;-68
2022/09/20 01:39:37;;;;;;;1.05;0.30;;;16.60;54.60;;;;;;5053130;28;20017;-68
2022/09/20 01:42:12;;;;;;;4.88;0.70;;;16.50;54.80;;;;;;5053215;28;20086;-68
2022/09/20 01:44:56;;;;;;;5.97;0.60;;;16.50;55.10;;;;;;5052908;28;20021;-68
2022/09/20 01:47:28;;;;;;;1.15;0.38;;;16.50;56.30;;;;;;5053256;28;20035;-68
2022/09/20 01:50:27;;;;;;;3.58;0.57;;;16.40;55.60;;;;;;5053018;28;20593;-68
2022/09/20 01:53:02;;;;;;;0.50;0.43;;;16.50;55.40;;;;;;5053249;28;20037;-69
2022/09/20 01:55:56;;;;;;;1.80;0.50;;;16.40;55.60;;;;;;5053282;28;20028;-68
2022/09/20 01:58:30;;;;;;;1.27;0.35;;;16.40;55.00;;;;;;5053082;28;20048;-73
2022/09/20 02:01:28;;;;;;;1.02;0.45;;;16.40;54.90;;;;;;5053222;28;20044;-68
2022/09/20 02:03:53;;;;;;;3.00;0.40;;;16.30;55.00;;;;;;5052980;28;20080;-68
2022/09/20 02:06:42;;;;;;;1.58;0.80;;;16.30;55.30;;;;;;5052955;28;20068;-70
2022/09/20 02:09:08;;;;;;;1.98;0.70;;;16.20;55.10;;;;;;5031610;28;20102;-67
2022/09/20 02:11:53;;;;;;;4.35;0.60;;;16.20;55.20;;;;;;5052870;28;20064;-68
2022/09/20 02:14:46;;;;;;;0.85;0.45;;;16.20;54.80;;;;;;5052881;28;20109;-68
2022/09/20 02:17:32;;;;;;;1.30;0.50;;;16.30;54.80;;;;;;5052827;28;20025;-68
2022/09/20 02:20:12;;;;;;;1.38;0.60;;;16.20;55.20;;;;;;5052521;28;20025;-68
2022/09/20 02:22:54;;;;;;;2.17;0.47;;;16.20;54.80;;;;;;5052645;28;20035;-68
2022/09/20 02:25:23;;;;;;;;;;;16.20;55.40;;;;;;5053090;28;20024;-68
2022/09/20 02:28:19;;;;;;;2.67;0.45;;;16.10;55.30;;;;;;5052774;28;19913;-68
2022/09/20 02:31:17;;;;;;;2.05;0.60;;;16.10;55.90;;;;;;5052635;28;20091;-68
2022/09/20 02:33:46;;;;;;;2.15;0.60;;;16.10;55.50;;;;;;5052775;28;20044;-68
2022/09/20 02:36:39;;;;;;;1.60;0.50;;;16.00;55.90;;;;;;5053000;28;20468;-68
2022/09/20 02:39:08;;;;;;;;;;;16.00;55.50;;;;;;5053285;28;20073;-68
2022/09/20 02:41:39;;;;;;;1.30;0.40;;;16.00;55.50;;;;;;5052626;28;20003;-68
2022/09/20 02:44:27;;;;;;;2.03;0.60;;;16.00;55.70;;;;;;5052520;28;20033;-68
2022/09/20 02:47:19;;;;;;;4.18;0.60;;;16.00;55.60;;;;;;5052609;28;20479;-68
2022/09/20 02:49:59;;;;;;;4.25;0.95;;;16.00;55.20;;;;;;5052456;28;20107;-68
2022/09/20 02:52:30;;;;;;;0.60;0.50;;;15.90;55.00;;;;;;5052541;28;20122;-68
2022/09/20 02:55:04;;;;;;;2.20;0.45;;;15.90;55.10;;;;;;5053568;28;20107;-68
2022/09/20 02:57:52;;;;;;;1.45;0.65;;;15.90;55.90;;;;;;5056378;28;20067;-68
2022/09/20 03:00:24;;;;;;;2.17;0.60;;;15.90;55.70;;;;;;5056135;28;20032;-68
2022/09/20 03:02:58;;;;;;;2.80;0.50;;;15.80;55.60;;;;;;5056447;28;20021;-68
2022/09/20 03:06:16;;;;;;;1.30;0.57;;;15.80;55.80;;;;;;5056278;28;20025;-68
2022/09/20 03:08:49;;;;;;;5.38;0.70;;;15.80;56.20;;;;;;5014183;28;20512;-73
2022/09/20 03:11:20;;;;;;;;;;;15.70;56.60;;;;;;5049705;28;20041;-68
2022/09/20 03:13:49;;;;;;;6.07;0.88;;;15.60;57.10;;;;;;5056228;28;19909;-68
2022/09/20 03:16:47;;;;;;;0.98;0.60;;;15.60;57.60;;;;;;5056034;28;20025;-68
2022/09/20 03:19:42;;;;;;;1.40;0.60;;;15.60;58.10;;;;;;5055937;28;20038;-67
2022/09/20 03:22:13;;;;;;;4.15;0.80;;;15.40;58.90;;;;;;5047012;28;20072;-68
2022/09/20 03:24:47;;;;;;;0.55;0.40;;;15.30;59.30;;;;;;5055688;28;20029;-69
2022/09/20 03:27:26;;;;;;;1.48;0.40;;;15.20;59.60;;;;;;5056082;28;20021;-68
2022/09/20 03:30:20;;;;;;;1.05;0.60;;;15.10;60.10;;;;;;5055968;28;20033;-68
2022/09/20 03:33:07;;;;;;;1.55;0.50;;;15.10;60.10;;;;;;5048169;28;20068;-68
2022/09/20 03:35:44;;;;;;;2.13;0.45;;;15.10;60.30;;;;;;5055437;28;20021;-68
2022/09/20 03:38:43;;;;;;;1.77;0.60;;;15.10;60.60;;;;;;5055635;28;20056;-68
2022/09/20 03:41:42;;;;;;;4.15;1.00;;;15.00;60.90;;;;;;5055686;28;20036;-69
2022/09/20 03:44:38;;;;;;;1.92;0.60;;;15.00;60.20;;;;;;5055615;28;20032;-68
2022/09/20 03:47:41;;;;;;;1.65;0.65;;;15.00;60.30;;;;;;5055388;28;20032;-68
2022/09/20 03:50:15;;;;;;;2.13;0.68;;;15.00;60.60;;;;;;5040369;28;20080;-68
2022/09/20 03:52:44;;;;;;;1.25;0.50;;;14.90;60.50;;;;;;5055321;28;20471;-68
2022/09/20 03:55:25;;;;;;;0.75;0.45;;;14.90;60.60;;;;;;5055436;28;20075;-67
2022/09/20 03:58:20;;;;;;;0.93;0.52;;;14.90;60.40;;;;;;5055085;28;20078;-68
2022/09/20 04:01:22;;;;;;;2.65;0.52;;;15.00;60.40;;;;;;5039169;28;20044;-68
2022/09/20 04:04:07;;;;;;;2.90;0.80;;;14.90;60.50;;;;;;5055207;28;20071;-68
2022/09/20 04:06:48;;;;;;;1.20;0.60;;;14.90;60.70;;;;;;5053913;28;20370;-72
2022/09/20 04:09:36;;;;;;;4.60;0.60;;;14.90;60.40;;;;;;5054836;28;20060;-68
2022/09/20 04:12:10;;;;;;;6.65;0.93;;;14.90;59.80;;;;;;5055103;28;20491;-68
2022/09/20 04:14:53;;;;;;;1.48;0.60;;;14.90;59.20;;;;;;5055111;28;20383;-68
2022/09/20 04:17:19;;;;;;;3.30;1.48;;;14.80;58.90;;;;;;5055161;28;20348;-68
2022/09/20 04:20:01;;;;;;;3.38;0.70;;;14.90;59.20;;;;;;5054867;28;20028;-68
2022/09/20 04:22:28;;;;;;;1.20;0.60;;;14.80;59.20;;;;;;5054826;28;20025;-68
2022/09/20 04:25:19;;;;;;;2.65;0.90;;;14.90;59.30;;;;;;5054771;28;20251;-68
2022/09/20 04:27:47;;;;;;;1.00;0.57;;;14.90;59.10;;;;;;5054822;28;20040;-68
2022/09/20 04:30:28;;;;;;;0.40;0.40;;;14.90;58.80;;;;;;5054503;28;20039;-68
2022/09/20 04:33:11;;;;;;;1.90;0.60;;;14.90;59.10;;;;;;5054933;28;20434;-68
2022/09/20 04:36:29;;;;;;;0.82;0.50;;;14.80;59.60;;;;;;5054613;28;20039;-68
2022/09/20 04:39:00;;;;;;;1.70;0.75;;;14.80;59.60;;;;;;5054728;28;20029;-68
2022/09/20 04:41:55;;;;;;;3.53;0.75;;;14.80;59.60;;;;;;5054400;28;20013;-68
2022/09/20 04:44:54;;;;;;;3.60;0.77;;;14.70;60.10;;;;;;5054677;28;20052;-68
2022/09/20 04:47:38;;;;;;;2.72;0.63;;;14.70;60.30;;;;;;5054536;28;20032;-69
2022/09/20 04:50:31;;;;;;;2.08;0.55;;;14.70;60.70;;;;;;5054038;28;20056;-68
2022/09/20 04:53:14;;;;;;;1.80;0.60;;;14.60;61.10;;;;;;5054161;28;20028;-68
2022/09/20 04:55:51;;;;;;;1.55;0.60;;;14.60;60.60;;;;;;5054393;28;20013;-67
2022/09/20 04:59:09;;;;;;;3.03;0.82;;;14.50;61.00;;;;;;5054106;28;20017;-68
2022/09/20 05:01:55;;;;;;;1.65;0.77;;;14.50;61.40;;;;;;5031637;28;20033;-70
2022/09/20 05:04:37;;;;;;;1.40;0.70;;;14.50;61.50;;;;;;5053867;28;20029;-67
2022/09/20 05:07:21;;;;;;;4.85;0.60;;;14.40;61.50;;;;;;5054177;28;20036;-68
2022/09/20 05:09:55;;;;;;;4.25;0.60;;;14.40;61.70;;;;;;5054232;28;20104;-67
2022/09/20 05:12:59;;;;;;;3.00;0.60;;;14.40;61.80;;;;;;5053892;28;20415;-68
2022/09/20 05:15:37;;;;;;;4.05;0.73;;;14.40;61.40;;;;;;5053898;28;20033;-68
2022/09/20 05:18:20;;;;;;;8.18;1.00;;;14.30;61.30;;;;;;5053340;28;20055;-68
2022/09/20 05:21:06;;;;;;;4.47;1.00;;;14.30;61.70;;;;;;5053676;28;20056;-68
2022/09/20 05:23:38;;;;;;;3.17;1.08;;;14.30;62.10;;;;;;5053268;28;20106;-71
2022/09/20 05:26:25;;;;;;;12.10;1.60;;;14.30;62.60;;;;;;5053658;28;20028;-68
2022/09/20 05:29:08;;;;;;;2.40;0.90;;;14.30;62.70;;;;;;5053570;28;20040;-68
2022/09/20 05:31:40;;;;;;;4.43;1.00;;;14.20;62.50;;;;;;5053480;28;20028;-69
2022/09/20 05:34:33;;;;;;;2.25;0.88;;;14.20;62.60;;;;;;5053043;28;20029;-68
2022/09/20 05:36:58;;;;;;;;;;;14.20;62.70;;;;;;5053244;28;20040;-68
2022/09/20 05:39:48;;;;;;;3.58;0.90;;;14.20;62.50;;;;;;5053315;28;19905;-68
2022/09/20 05:42:25;;;;;;;4.57;0.80;;;14.20;62.70;;;;;;5053163;28;20029;-68
2022/09/20 05:45:26;;;;;;;2.80;0.65;;;14.20;63.10;;;;;;5053104;28;20123;-68
2022/09/20 05:48:03;;;;;;;5.28;0.90;;;14.30;63.10;;;;;;5038792;28;20051;-67
2022/09/20 05:50:58;;;;;;;6.55;0.77;;;14.30;62.70;;;;;;5051277;28;20053;-68
2022/09/20 05:53:48;;;;;;;1.50;0.70;;;14.30;62.60;;;;;;5048183;28;20083;-68
2022/09/20 05:56:51;;;;;;;4.15;1.63;;;14.40;62.30;;;;;;5052473;28;20105;-72
2022/09/20 05:59:23;;;;;;;4.03;0.73;;;14.40;61.60;;;;;;5049271;28;20227;-73
2022/09/20 06:02:10;;;;;;;1.45;0.70;;;14.40;61.70;;;;;;5003635;28;20140;-73
2022/09/20 06:04:49;;;;;;;2.13;0.90;;;14.50;61.00;;;;;;5032131;28;20030;-68
2022/09/20 06:07:48;;;;;;;5.25;0.70;;;14.50;61.40;;;;;;5032763;28;20021;-68
2022/09/20 06:10:51;;;;;;;4.18;0.63;;;14.50;61.20;;;;;;5032678;28;20030;-68
2022/09/20 06:13:58;;;;;;;1.88;0.63;;;14.60;61.20;;;;;;5032689;28;20021;-73
2022/09/20 06:16:49;;;;;;;8.15;0.88;;;14.60;61.30;;;;;;5032476;28;20391;-70
2022/09/20 06:19:36;;;;;;;13.15;1.70;;;14.70;61.40;;;;;;5030989;28;20133;-69
2022/09/20 06:22:18;;;;;;;5.45;0.60;;;14.70;61.50;;;;;;5031360;28;20033;-68
2022/09/20 06:24:57;;;;;;;3.75;1.20;;;14.80;61.90;;;;;;5031928;28;20026;-68
2022/09/20 06:27:28;;;;;;;3.15;0.70;;;14.80;61.80;;;;;;5031204;28;20108;-68
2022/09/20 06:30:02;;;;;;;1.77;0.90;;;14.80;62.60;;;;;;5033191;28;20099;-68
2022/09/20 06:32:28;;;;;;;4.20;1.00;;;14.80;63.40;;;;;;5036851;28;20042;-68
2022/09/20 06:34:54;;;;;;;4.47;0.80;;;14.90;63.80;;;;;;5036656;28;20541;-68
2022/09/20 06:43:18;;;;;;;1.85;0.80;;;15.00;63.00;;;;;;5036802;28;20040;-67
2022/09/20 06:45:44;;;;;;;1.55;0.70;;;15.10;63.00;;;;;;5036732;28;20037;-69
2022/09/20 06:48:12;;;;;;;6.45;0.75;;;15.20;62.90;;;;;;5036242;28;20483;-69
2022/09/20 06:50:38;;;;;;;3.15;0.50;;;15.20;62.10;;;;;;5034792;28;20492;-68
2022/09/20 06:53:05;;;;;;;3.47;0.68;;;15.20;61.70;;;;;;5036542;28;20036;-67
2022/09/20 06:55:40;;;;;;;2.25;0.82;;;15.30;60.90;;;;;;5034163;28;20026;-69
2022/09/20 06:58:07;;;;;;;4.68;0.88;;;15.30;60.60;;;;;;5033910;28;20115;-71
2022/09/20 07:00:33;;;;;;;2.65;0.80;;;15.40;60.30;;;;;;5033669;28;20044;-70
2022/09/20 07:02:58;;;;;;;3.28;0.70;;;15.40;60.40;;;;;;5035034;28;20029;-68
2022/09/20 07:05:25;;;;;;;3.50;0.60;;;15.50;59.90;;;;;;5036162;28;20464;-68
2022/09/20 07:07:56;;;;;;;2.38;0.68;;;15.50;60.10;;;;;;5035939;28;20079;-68
2022/09/20 07:10:22;;;;;;;5.10;0.98;;;15.50;60.10;;;;;;5036037;28;20036;-68
2022/09/20 07:12:48;;;;;;;5.88;0.85;;;15.60;60.30;;;;;;5035616;28;20475;-68
2022/09/20 07:15:15;;;;;;;1.38;0.65;;;15.60;60.20;;;;;;5036070;28;20047;-68
2022/09/20 07:17:44;;;;;;;5.38;0.63;;;15.70;60.10;;;;;;5035787;28;20036;-68
2022/09/20 07:20:10;;;;;;;4.05;0.68;;;15.80;59.90;;;;;;5035935;28;20025;-68
2022/09/20 07:22:35;;;;;;;2.30;0.43;;;15.80;59.60;;;;;;5036031;28;20082;-68
2022/09/20 07:25:01;;;;;;;1.45;0.40;;;15.90;59.40;;;;;;5035812;28;20516;-68
2022/09/20 07:27:28;;;;;;;2.47;0.60;;;15.90;59.10;;;;;;5035397;28;20526;-68
2022/09/20 07:29:54;;;;;;;1.73;0.50;;;16.00;59.00;;;;;;5034672;28;20038;-71
2022/09/20 07:32:20;;;;;;;3.80;0.50;;;16.10;58.70;;;;;;5035043;28;20032;-69
2022/09/20 07:34:46;;;;;;;0.95;0.60;;;16.20;58.20;;;;;;5035424;28;20108;-69
2022/09/20 07:37:12;;;;;;;0.70;0.50;;;16.20;57.60;;;;;;5035261;28;20022;-70
2022/09/20 07:39:38;;;;;;;18.52;1.02;;;16.30;57.20;;;;;;5035363;28;20067;-70
2022/09/20 07:42:07;;;;;;;1.35;0.50;;;16.30;56.40;;;;;;5035140;28;20021;-70
2022/09/20 07:44:32;;;;;;;1.63;0.40;;;16.40;56.30;;;;;;5017527;28;20399;-73
2022/09/20 07:46:59;;;;;;;2.33;0.50;;;16.40;55.70;;;;;;5035118;28;20033;-69
2022/09/20 07:49:31;;;;;;;2.90;0.80;;;16.50;55.60;;;;;;5034913;28;20041;-70
2022/09/20 07:51:57;;;;;;;1.20;0.40;;;16.50;55.60;;;;;;5034800;28;20049;-79
2022/09/20 07:54:23;;;;;;;3.65;0.63;;;16.60;55.80;;;;;;5035272;28;20087;-69
2022/09/20 07:56:49;;;;;;;1.35;0.55;;;16.70;54.50;;;;;;5034412;28;20464;-69
2022/09/20 07:59:15;;;;;;;2.88;0.50;;;16.70;54.50;;;;;;5034803;28;20083;-80
2022/09/20 08:01:42;;;;;;;2.80;0.60;;;16.70;54.80;;;;;;5034710;28;20021;-70
2022/09/20 08:04:08;;;;;;;1.63;0.47;;;16.80;55.40;;;;;;5034737;28;20021;-80
2022/09/20 08:06:39;;;;;;;4.03;0.50;;;16.90;55.40;;;;;;5034980;28;20028;-69
2022/09/20 08:09:05;;;;;;;2.42;0.70;;;17.00;55.50;;;;;;5034700;28;20025;-78
2022/09/20 08:11:31;;;;;;;2.33;0.65;;;17.00;55.90;;;;;;5034873;28;20024;-70
2022/09/20 08:13:58;;;;;;;4.13;0.50;;;17.10;55.40;;;;;;5034908;28;20025;-69
2022/09/20 08:16:25;;;;;;;10.27;0.70;;;17.10;55.30;;;;;;5034624;28;20042;-70
2022/09/20 08:18:56;;;;;;;2.65;0.60;;;17.20;55.40;;;;;;5034902;28;20028;-71
2022/09/20 08:21:23;;;;;;;69.95;4.65;;;17.30;55.50;;;;;;5034814;28;20472;-70
2022/09/20 08:23:49;;;;;;;5.07;0.60;;;17.40;55.40;;;;;;5034505;28;20476;-73
2022/09/20 08:26:18;;;;;;;2.25;0.70;;;17.50;55.50;;;;;;5034815;28;20017;-69
2022/09/20 08:28:45;;;;;;;2.20;0.50;;;17.50;55.40;;;;;;5034334;28;20506;-69
2022/09/20 08:31:15;;;;;;;2.92;0.73;;;17.60;55.00;;;;;;5034363;28;20063;-69
2022/09/20 08:33:42;;;;;;;3.40;0.60;;;17.60;54.80;;;;;;5034222;28;20416;-68
2022/09/20 08:36:11;;;;;;;3.53;0.70;;;17.70;55.00;;;;;;5034750;28;20026;-69
2022/09/20 08:38:36;;;;;;;1.83;0.60;;;17.80;55.40;;;;;;5034478;28;20053;-69
2022/09/20 08:41:04;;;;;;;4.05;0.50;;;17.80;55.10;;;;;;5034359;28;20099;-69
2022/09/20 08:43:41;;;;;;;2.10;0.30;;;17.90;54.70;;;;;;5033851;28;20018;-78
2022/09/20 08:46:12;;;;;;;2.05;0.52;;;18.00;54.40;;;;;;5034151;28;20496;-68
2022/09/20 08:48:38;;;;;;;3.00;0.57;;;18.00;54.50;;;;;;5034147;28;20119;-69
2022/09/20 08:51:07;;;;;;;3.80;0.50;;;18.10;54.30;;;;;;5034212;28;20187;-69
2022/09/20 08:53:33;;;;;;;3.28;0.30;;;18.10;54.40;;;;;;5033791;28;20104;-70
2022/09/20 08:56:00;;;;;;;1.13;0.32;;;18.20;54.10;;;;;;5034148;28;20519;-69
2022/09/20 08:58:26;;;;;;;2.13;0.50;;;18.30;54.20;;;;;;5034242;28;20033;-70
2022/09/20 09:00:54;;;;;;;4.85;0.40;;;18.30;53.80;;;;;;5034133;28;20128;-79
2022/09/20 09:03:20;;;;;;;1.02;0.52;;;18.40;52.90;;;;;;5034138;28;20030;-69
2022/09/20 09:05:49;;;;;;;0.50;0.30;;;18.50;52.30;;;;;;5034149;28;20474;-69
2022/09/20 09:08:18;;;;;;;1.92;0.45;;;18.50;52.20;;;;;;5033685;28;20510;-69
2022/09/20 09:10:56;;;;;;;1.60;0.43;;;18.60;52.30;;;;;;5034174;28;20360;-69
2022/09/20 09:13:32;;;;;;;1.20;0.40;;;18.70;51.90;;;;;;5033710;28;20064;-70
2022/09/20 09:16:08;;;;;;;0.82;0.40;;;18.70;51.80;;;;;;5033805;28;20387;-69
2022/09/20 09:18:40;;;;;;;0.73;0.28;;;18.80;51.00;;;;;;5033899;28;20022;-80
2022/09/20 09:21:09;;;;;;;1.70;0.43;;;18.80;50.20;;;;;;5033729;28;20113;-70
2022/09/20 09:23:42;;;;;;;1.50;0.30;;;18.90;50.00;;;;;;5033557;28;20100;-69
2022/09/20 09:26:22;;;;;;;4.05;0.40;;;18.90;49.70;;;;;;5033490;28;20483;-69
2022/09/20 09:29:16;;;;;;;1.08;0.40;;;19.00;49.60;;;;;;5033794;28;20037;-69
2022/09/20 09:31:44;;;;;;;0.43;0.30;;;19.10;48.50;;;;;;5033947;28;20029;-69
2022/09/20 09:34:30;;;;;;;1.02;0.20;;;19.10;48.30;;;;;;5033364;28;20025;-69
2022/09/20 09:36:58;;;;;;;0.93;0.25;;;19.20;47.90;;;;;;5033230;28;20033;-69
2022/09/20 09:39:35;;;;;;;0.90;0.40;;;19.30;47.30;;;;;;5033549;28;20033;-69
2022/09/20 09:42:19;;;;;;;0.70;0.40;;;19.30;47.40;;;;;;5033455;28;20711;-69
2022/09/20 09:44:49;;;;;;;1.45;0.40;;;19.40;47.50;;;;;;5033363;28;20076;-69
2022/09/20 09:47:28;;;;;;;2.13;0.40;;;19.40;47.30;;;;;;5033381;28;20391;-69
2022/09/20 09:49:58;;;;;;;0.93;0.47;;;19.50;47.40;;;;;;5033060;28;20521;-71
2022/09/20 09:52:26;;;;;;;1.27;0.50;;;19.60;46.50;;;;;;5033366;28;20025;-69
2022/09/20 09:54:58;;;;;;;0.32;0.25;;;19.60;44.90;;;;;;5033270;28;20021;-69
2022/09/20 09:57:36;;;;;;;1.15;0.30;;;19.70;45.10;;;;;;5033468;28;20053;-80
2022/09/20 10:00:12;;;;;;;3.33;0.32;;;19.80;45.10;;;;;;5032890;28;20037;-69
2022/09/20 10:03:15;;;;;;;0.80;0.30;;;19.90;45.50;;;;;;5032880;28;20439;-69
2022/09/20 10:05:53;;;;;;;3.67;0.40;;;19.90;45.00;;;;;;5033362;28;20032;-69
2022/09/20 10:08:21;;;;;;;0.73;0.30;;;20.00;44.20;;;;;;5033241;28;20025;-70
2022/09/20 10:10:56;;;;;;;1.50;0.50;;;20.10;42.60;;;;;;5033008;28;20025;-69
2022/09/20 10:13:37;;;;;;;0.68;0.32;;;20.10;41.50;;;;;;5032827;28;20459;-71
2022/09/20 10:16:27;;;;;;;3.70;0.40;;;20.20;42.00;;;;;;5033071;28;20068;-80
2022/09/20 10:19:02;;;;;;;2.08;0.20;;;20.30;42.50;;;;;;5033135;28;20037;-72
2022/09/20 10:22:00;;;;;;;0.43;0.35;;;20.30;42.10;;;;;;5032594;28;20033;-69
2022/09/20 10:24:38;;;;;;;1.35;0.50;;;20.40;41.80;;;;;;5032903;28;20030;-69
2022/09/20 10:27:22;;;;;;;0.57;0.30;;;20.40;41.50;;;;;;5032834;28;20025;-69
2022/09/20 10:29:56;;;;;;;0.22;0.20;;;20.50;39.90;;;;;;5032878;28;20064;-79
2022/09/20 10:32:53;;;;;;;0.85;0.10;;;20.50;39.40;;;;;;5033071;28;20057;-70
2022/09/20 10:35:43;;;;;;;0.40;0.20;;;20.60;40.10;;;;;;5032705;28;20404;-69
2022/09/20 10:38:14;;;;;;;0.13;0.10;;;20.70;38.90;;;;;;5032832;28;20025;-83
2022/09/20 10:44:17;;;;;;;0.55;0.20;;;20.80;38.20;;;;;;5032891;28;20084;-68
2022/09/20 10:47:21;;;;;;;0.60;0.20;;;20.80;36.40;;;;;;5032960;28;20037;-68
2022/09/20 10:50:19;;;;;;;0.32;0.10;;;20.90;37.10;;;;;;5032297;28;20399;-68
2022/09/20 10:52:57;;;;;;;0.47;0.20;;;20.90;34.50;;;;;;5032713;28;20018;-68
2022/09/20 10:55:46;;;;;;;0.95;0.20;;;20.90;35.40;;;;;;5032626;28;20075;-68
2022/09/20 10:58:30;;;;;;;0.70;0.22;;;20.80;35.60;;;;;;5032528;28;20041;-68
2022/09/20 11:01:18;;;;;;;0.40;0.20;;;20.90;37.10;;;;;;5032369;28;20033;-78
2022/09/20 11:04:03;;;;;;;1.38;0.40;;;20.90;36.20;;;;;;5032447;28;20032;-68
2022/09/20 11:06:57;;;;;;;0.30;0.30;;;20.90;36.40;;;;;;5032409;28;20041;-68
2022/09/20 11:09:30;;;;;;;0.40;0.20;;;20.90;36.50;;;;;;5026775;28;20463;-68
2022/09/20 11:12:24;;;;;;;0.55;0.30;;;21.00;37.20;;;;;;5014620;28;20032;-68
2022/09/20 11:14:53;;;;;;;0.20;0.20;;;21.00;36.40;;;;;;5032245;28;20022;-68
2022/09/20 11:17:19;;;;;;;1.98;0.20;;;21.00;35.70;;;;;;5035982;28;20100;-68
2022/09/20 11:20:06;;;;;;;0.63;0.30;;;21.00;36.40;;;;;;5035860;28;20479;-69
2022/09/20 11:22:37;;;;;;;0.80;0.30;;;21.10;36.80;;;;;;5035746;28;20097;-68
2022/09/20 11:25:19;;;;;;;0.50;0.30;;;21.10;35.40;;;;;;5036105;28;20022;-68
2022/09/20 11:28:18;;;;;;;1.35;0.30;;;21.10;34.80;;;;;;5035839;28;20033;-68
2022/09/20 11:30:59;;;;;;;0.30;0.20;;;21.10;35.70;;;;;;5005565;28;20483;-68
2022/09/20 11:33:33;;;;;;;2.03;0.40;;;21.10;35.60;;;;;;5035827;28;20052;-68
2022/09/20 11:36:03;;;;;;;2.75;0.40;;;21.20;36.20;;;;;;5035767;28;20380;-68
2022/09/20 11:38:42;;;;;;;0.30;0.20;;;21.20;36.90;;;;;;5035620;28;20025;-68
2022/09/20 11:41:24;;;;;;;1.42;0.30;;;21.20;37.30;;;;;;5035685;28;20087;-68
2022/09/20 11:43:51;;;;;;;1.00;0.30;;;21.20;37.30;;;;;;5035488;28;20025;-68
2022/09/20 11:46:37;;;;;;;0.60;0.20;;;21.30;37.20;;;;;;5035486;28;20033;-68
2022/09/20 11:49:11;;;;;;;0.45;0.20;;;21.20;37.70;;;;;;5035377;28;20092;-69
2022/09/20 11:51:44;;;;;;;3.15;0.30;;;21.30;37.00;;;;;;5033857;28;20054;-68
2022/09/20 11:54:28;;;;;;;0.20;0.20;;;21.30;37.30;;;;;;5032471;28;20132;-68
2022/09/20 11:56:56;;;;;;;0.57;0.30;;;21.40;36.70;;;;;;5032367;28;20079;-69
2022/09/20 11:59:36;;;;;;;0.90;0.20;;;21.40;36.10;;;;;;5034593;28;20545;-68
2022/09/20 12:02:11;;;;;;;0.30;0.20;;;21.40;36.80;;;;;;5035112;28;20028;-68
2022/09/20 12:04:43;;;;;;;0.52;0.30;;;21.50;37.40;;;;;;5035161;28;20040;-68
2022/09/20 12:07:14;;;;;;;1.20;0.20;;;21.50;37.20;;;;;;5034751;28;20022;-68
2022/09/20 12:09:52;;;;;;;1.20;0.20;;;21.50;37.20;;;;;;5034699;28;20069;-69
2022/09/20 12:12:27;;;;;;;1.67;0.30;;;21.50;36.20;;;;;;5034884;28;20392;-75
2022/09/20 12:14:56;;;;;;;0.63;0.30;;;21.60;36.50;;;;;;5034392;28;20036;-69
2022/09/20 12:17:48;;;;;;;0.63;0.25;;;21.60;36.40;;;;;;5034459;28;20124;-68
2022/09/20 12:20:33;;;;;;;0.60;0.30;;;21.70;36.10;;;;;;5011562;28;20037;-69
2022/09/20 12:23:39;;;;;;;0.77;0.20;;;21.70;35.20;;;;;;5033602;28;20033;-68
2022/09/20 12:26:06;;;;;;;0.30;0.20;;;21.70;34.90;;;;;;5032068;28;20042;-69
2022/09/20 12:28:53;;;;;;;0.85;0.30;;;21.70;35.30;;;;;;5032312;28;20116;-68
2022/09/20 12:31:27;;;;;;;0.90;0.30;;;21.70;36.80;;;;;;5033868;28;20098;-68
2022/09/20 12:34:12;;;;;;;0.75;0.32;;;21.80;38.20;;;;;;5033496;28;20498;-68
2022/09/20 12:36:50;;;;;;;0.90;0.20;;;21.80;34.00;;;;;;5034062;28;20025;-75
2022/09/20 12:39:26;;;;;;;0.30;0.30;;;21.80;35.30;;;;;;5033928;28;20025;-68
2022/09/20 12:42:01;;;;;;;3.40;0.50;;;21.80;34.70;;;;;;5034019;28;20018;-68
2022/09/20 12:44:44;;;;;;;0.20;0.10;;;21.90;35.30;;;;;;5034621;28;20033;-76
2022/09/20 12:47:10;;;;;;;4.03;0.30;;;21.90;35.60;;;;;;5034338;28;20043;-68
2022/09/20 12:52:54;;;;;;;0.45;0.30;;;21.90;35.90;;;;;;5034827;28;20123;-68
2022/09/20 12:55:29;;;;;;;0.27;0.20;;;22.00;35.40;;;;;;5034143;28;20030;-68
2022/09/20 12:58:13;;;;;;;1.00;0.30;;;22.00;34.70;;;;;;5034082;28;20025;-68
2022/09/20 13:00:59;;;;;;;0.40;0.30;;;22.00;34.00;;;;;;5033126;28;20049;-68
2022/09/20 13:03:47;;;;;;;4.20;0.60;;;22.00;35.00;;;;;;5034197;28;20025;-68
2022/09/20 13:06:15;;;;;;;2.33;0.30;;;22.00;36.30;;;;;;5034044;28;20049;-69
2022/09/20 13:08:56;;;;;;;0.38;0.30;;;22.00;36.40;;;;;;5034098;28;20141;-69
2022/09/20 13:11:37;;;;;;;0.40;0.30;;;22.00;34.70;;;;;;5034113;28;20049;-68
2022/09/20 13:14:11;;;;;;;2.47;0.28;;;22.00;34.30;;;;;;5033165;28;20392;-68
2022/09/20 13:16:53;;;;;;;4.47;0.35;;;22.00;34.20;;;;;;5033840;28;20378;-77
2022/09/20 13:19:28;;;;;;;5.65;0.43;;;22.00;36.10;;;;;;5033937;28;20459;-68
2022/09/20 13:21:59;;;;;;;1.95;0.75;;;22.10;36.80;;;;;;5033671;28;20029;-68
2022/09/20 13:24:28;;;;;;;0.20;0.20;;;22.10;37.00;;;;;;5033742;28;20375;-69
2022/09/20 13:27:01;;;;;;;0.30;0.30;;;22.10;37.00;;;;;;5033345;28;20033;-68
2022/09/20 13:29:39;;;;;;;1.55;0.30;;;22.10;37.20;;;;;;5033271;28;20033;-69
2022/09/20 13:32:27;;;;;;;0.50;0.43;;;22.10;35.80;;;;;;5033309;28;20022;-69
2022/09/20 13:35:11;;;;;;;1.00;0.47;;;22.10;33.80;;;;;;5033724;28;20104;-78
2022/09/20 13:37:55;;;;;;;0.85;0.35;;;22.10;35.20;;;;;;5033417;28;20063;-68
2022/09/20 13:40:32;;;;;;;0.75;0.47;;;22.10;34.30;;;;;;5033195;28;20030;-69
2022/09/20 13:43:01;;;;;;;0.88;0.40;;;22.10;35.20;;;;;;5033401;28;20040;-69
2022/09/20 13:45:27;;;;;;;3.20;0.40;;;22.10;35.10;;;;;;5032960;28;20106;-68
2022/09/20 13:47:56;;;;;;;2.80;0.50;;;22.10;35.60;;;;;;5033236;28;20013;-68
2022/09/20 13:50:25;;;;;;;1.98;0.50;;;22.10;35.80;;;;;;5033163;28;20045;-68
2022/09/20 13:52:59;;;;;;;2.63;0.57;;;22.10;36.30;;;;;;5033159;28;20029;-68